createdAt,value
2019-05-16T00:00:49.445Z,56.17
2019-05-16T00:01:48.812Z,56.14
2019-05-16T00:02:48.089Z,56.14
2019-05-16T00:03:48.876Z,56.04
2019-05-16T00:04:48.190Z,56.14
2019-05-16T00:05:54.017Z,55.76
2019-05-16T00:06:48.122Z,56.14
2019-05-16T00:07:49.156Z,55.95
2019-05-16T00:08:48.078Z,56.04
2019-05-16T00:09:48.391Z,56.07
2019-05-16T00:10:48.730Z,56.14
2019-05-16T00:11:48.792Z,55.95
2019-05-16T00:12:48.680Z,56.14
2019-05-16T00:13:48.846Z,56.14
2019-05-16T00:14:48.822Z,56.62
2019-05-16T00:15:48.114Z,55.66
2019-05-16T00:16:48.365Z,56.04
2019-05-16T00:17:48.863Z,55.66
2019-05-16T00:18:47.931Z,56.04
2019-05-16T00:19:48.407Z,55.85
2019-05-16T00:20:46.639Z,55.47
2019-05-16T00:21:48.687Z,56.04
2019-05-16T00:22:48.463Z,56.24
2019-05-16T00:23:48.618Z,55.95
2019-05-16T00:24:48.606Z,55.95
2019-05-16T00:25:47.779Z,55.95
2019-05-16T00:26:47.970Z,55.66
2019-05-16T00:27:47.998Z,56.04
2019-05-16T00:28:48.478Z,56.43
2019-05-16T00:29:48.610Z,56.14
2019-05-16T00:30:48.597Z,55.95
2019-05-16T00:31:48.525Z,55.85
2019-05-16T00:32:48.207Z,55.95
2019-05-16T00:33:48.516Z,55.85
2019-05-16T00:34:47.774Z,56.04
2019-05-16T00:35:48.185Z,56.24
2019-05-16T00:36:46.189Z,55.95
2019-05-16T00:37:48.324Z,55.95
2019-05-16T00:38:48.347Z,55.95
2019-05-16T00:39:48.113Z,56.04
2019-05-16T00:40:46.073Z,55.66
2019-05-16T00:41:47.890Z,56.14
2019-05-16T00:42:48.888Z,55.95
2019-05-16T00:43:48.503Z,56.04
2019-05-16T00:44:47.851Z,56.81
2019-05-16T00:45:48.442Z,56.90
2019-05-16T00:46:45.907Z,56.81
2019-05-16T00:47:47.882Z,56.62
2019-05-16T00:48:45.859Z,56.81
2019-05-16T00:49:47.837Z,56.90
2019-05-16T00:50:48.034Z,56.81
2019-05-16T00:51:48.028Z,56.81
2019-05-16T00:52:45.749Z,56.43
2019-05-16T00:53:45.691Z,56.71
2019-05-16T00:54:45.670Z,56.81
2019-05-16T00:55:47.819Z,57.38
2019-05-16T00:56:45.671Z,57.09
2019-05-16T00:57:47.963Z,57.76
2019-05-16T00:58:45.588Z,57.57
2019-05-16T00:59:45.553Z,57.95
2019-05-16T01:00:45.500Z,58.04
2019-05-16T01:01:49.709Z,58.04
2019-05-16T01:02:45.450Z,58.04
2019-05-16T01:03:45.518Z,58.14
2019-05-16T01:04:45.378Z,58.04
2019-05-16T01:05:45.442Z,58.04
2019-05-16T01:06:45.334Z,57.95
2019-05-16T01:07:48.039Z,58.14
2019-05-16T01:08:45.265Z,58.33
2019-05-16T01:09:45.358Z,58.52
2019-05-16T01:10:45.215Z,58.81
2019-05-16T01:11:45.270Z,58.43
2019-05-16T01:12:45.151Z,58.72
2019-05-16T01:13:48.506Z,58.78
2019-05-16T01:14:45.099Z,59.09
2019-05-16T01:15:48.587Z,59.35
2019-05-16T01:16:45.035Z,59.16
2019-05-16T01:17:48.175Z,59.48
2019-05-16T01:18:44.987Z,59.45
2019-05-16T01:19:45.029Z,59.35
2019-05-16T01:20:44.924Z,59.28
2019-05-16T01:21:45.027Z,59.26
2019-05-16T01:22:44.869Z,59.54
2019-05-16T01:23:44.940Z,60.05
2019-05-16T01:24:44.812Z,60.21
2019-05-16T01:25:44.853Z,60.40
2019-05-16T01:26:44.761Z,60.81
2019-05-16T01:27:44.884Z,60.49
2019-05-16T01:28:44.708Z,59.92
2019-05-16T01:29:44.669Z,60.40
2019-05-16T01:30:44.643Z,60.52
2019-05-16T01:31:44.616Z,61.00
2019-05-16T01:32:44.591Z,61.25
2019-05-16T01:33:44.609Z,61.16
2019-05-16T01:34:44.530Z,61.25
2019-05-16T01:35:44.629Z,61.76
2019-05-16T01:36:44.475Z,62.34
2019-05-16T01:37:44.439Z,61.83
2019-05-16T01:38:44.415Z,62.24
2019-05-16T01:39:44.384Z,62.02
2019-05-16T01:40:44.354Z,62.34
2019-05-16T01:41:44.439Z,62.21
2019-05-16T01:42:44.303Z,62.02
2019-05-16T01:43:44.347Z,62.24
2019-05-16T01:44:44.247Z,61.76
2019-05-16T01:45:44.221Z,62.21
2019-05-16T01:46:44.186Z,62.15
2019-05-16T01:47:44.174Z,62.40
2019-05-16T01:48:44.137Z,62.52
2019-05-16T01:49:44.099Z,62.97
2019-05-16T01:50:44.064Z,63.07
2019-05-16T01:51:44.051Z,63.26
2019-05-16T01:52:44.020Z,63.35
2019-05-16T01:53:43.987Z,62.88
2019-05-16T01:54:43.979Z,63.64
2019-05-16T01:55:43.936Z,63.45
2019-05-16T01:56:43.899Z,63.35
2019-05-16T01:57:43.877Z,63.54
2019-05-16T01:58:43.880Z,63.64
2019-05-16T01:59:43.847Z,63.54
2019-05-16T02:00:52.241Z,64.02
2019-05-16T02:01:43.859Z,64.50
2019-05-16T02:02:43.752Z,64.21
2019-05-16T02:03:43.724Z,64.21
2019-05-16T02:04:43.774Z,64.21
2019-05-16T02:05:43.651Z,64.50
2019-05-16T02:06:51.818Z,64.21
2019-05-16T02:07:43.584Z,64.40
2019-05-16T02:08:43.555Z,64.40
2019-05-16T02:09:43.605Z,64.12
2019-05-16T02:10:43.622Z,64.87
2019-05-16T02:11:43.470Z,64.87
2019-05-16T02:12:43.434Z,64.87
2019-05-16T02:13:43.429Z,64.87
2019-05-16T02:14:43.385Z,65.45
2019-05-16T02:15:43.445Z,66.21
2019-05-16T02:16:43.339Z,65.73
2019-05-16T02:17:45.400Z,65.83
2019-05-16T02:18:43.273Z,65.73
2019-05-16T02:19:43.358Z,66.21
2019-05-16T02:20:43.219Z,66.21
2019-05-16T02:21:43.265Z,66.31
2019-05-16T02:22:43.153Z,66.40
2019-05-16T02:23:44.212Z,66.40
2019-05-16T02:24:43.094Z,67.26
2019-05-16T02:25:43.157Z,67.26
2019-05-16T02:26:43.042Z,67.26
2019-05-16T02:27:43.012Z,66.85
2019-05-16T02:28:43.807Z,67.26
2019-05-16T02:29:42.983Z,67.70
2019-05-16T02:30:42.923Z,67.83
2019-05-16T02:31:42.910Z,67.83
2019-05-16T02:32:42.878Z,67.74
2019-05-16T02:33:42.839Z,68.18
2019-05-16T02:34:44.037Z,68.56
2019-05-16T02:35:42.811Z,69.13
2019-05-16T02:36:42.924Z,69.13
2019-05-16T02:37:42.781Z,69.60
2019-05-16T02:38:42.830Z,69.32
2019-05-16T02:39:42.681Z,69.42
2019-05-16T02:40:42.842Z,69.70
2019-05-16T02:41:46.101Z,70.27
2019-05-16T02:42:43.781Z,70.56
2019-05-16T02:43:42.558Z,70.18
2019-05-16T02:44:43.692Z,70.47
2019-05-16T02:45:42.502Z,70.37
2019-05-16T02:46:42.583Z,70.18
2019-05-16T02:47:43.047Z,70.56
2019-05-16T02:48:42.492Z,70.94
2019-05-16T02:49:42.406Z,70.94
2019-05-16T02:50:42.405Z,71.51
2019-05-16T02:51:42.340Z,71.32
2019-05-16T02:52:42.416Z,71.70
2019-05-16T02:53:42.264Z,71.89
2019-05-16T02:54:42.331Z,71.89
2019-05-16T02:55:42.274Z,72.08
2019-05-16T02:56:42.238Z,72.37
2019-05-16T02:57:42.177Z,71.80
2019-05-16T02:58:44.855Z,71.98
2019-05-16T02:59:42.093Z,71.89
2019-05-16T03:00:42.999Z,71.89
2019-05-16T03:01:42.033Z,71.42
2019-05-16T03:02:42.390Z,71.03
2019-05-16T03:03:44.188Z,71.03
2019-05-16T03:04:44.263Z,70.75
2019-05-16T03:05:42.160Z,70.84
2019-05-16T03:06:41.898Z,71.22
2019-05-16T03:07:46.844Z,70.94
2019-05-16T03:08:41.848Z,71.03
2019-05-16T03:09:41.813Z,70.94
2019-05-16T03:10:41.772Z,70.56
2019-05-16T03:11:42.170Z,70.65
2019-05-16T03:12:41.728Z,70.47
2019-05-16T03:13:42.234Z,70.47
2019-05-16T03:14:41.974Z,69.51
2019-05-16T03:15:41.640Z,68.75
2019-05-16T03:16:42.032Z,68.08
2019-05-16T03:17:41.604Z,68.75
2019-05-16T03:18:41.673Z,68.37
2019-05-16T03:19:41.907Z,67.89
2019-05-16T03:20:41.526Z,67.61
2019-05-16T03:21:41.494Z,67.70
2019-05-16T03:22:41.459Z,66.85
2019-05-16T03:23:42.250Z,67.03
2019-05-16T03:24:42.231Z,66.94
2019-05-16T03:25:42.005Z,66.94
2019-05-16T03:26:41.326Z,66.85
2019-05-16T03:27:41.706Z,67.22
2019-05-16T03:28:41.531Z,66.94
2019-05-16T03:29:41.786Z,66.27
2019-05-16T03:30:44.474Z,66.08
2019-05-16T03:31:44.350Z,67.22
2019-05-16T03:32:45.121Z,67.32
2019-05-16T03:33:49.927Z,67.32
2019-05-16T03:34:43.944Z,66.85
2019-05-16T03:35:44.815Z,67.03
2019-05-16T03:36:43.862Z,67.32
2019-05-16T03:37:54.449Z,67.51
2019-05-16T03:38:41.462Z,67.70
2019-05-16T03:39:40.946Z,67.80
2019-05-16T03:40:41.379Z,67.99
2019-05-16T03:41:41.598Z,67.89
2019-05-16T03:42:41.564Z,67.80
2019-05-16T03:43:41.384Z,68.08
2019-05-16T03:44:41.851Z,68.27
2019-05-16T03:45:41.753Z,68.27
2019-05-16T03:46:47.405Z,68.37
2019-05-16T03:47:42.793Z,69.13
2019-05-16T03:48:40.999Z,68.94
2019-05-16T03:49:42.190Z,68.75
2019-05-16T03:50:41.348Z,68.84
2019-05-16T03:51:41.452Z,69.04
2019-05-16T03:52:43.475Z,68.65
2019-05-16T03:53:40.581Z,69.13
2019-05-16T03:54:50.531Z,68.75
2019-05-16T03:55:40.886Z,68.84
2019-05-16T03:56:40.902Z,68.18
2019-05-16T03:57:41.476Z,68.18
2019-05-16T03:58:41.470Z,68.18
2019-05-16T03:59:40.821Z,68.75
2019-05-16T04:00:45.289Z,68.84
2019-05-16T04:01:40.951Z,69.04
2019-05-16T04:02:45.192Z,69.04
2019-05-16T04:03:41.220Z,69.23
2019-05-16T04:04:41.663Z,69.60
2019-05-16T04:05:41.382Z,70.27
2019-05-16T04:06:42.212Z,71.03
2019-05-16T04:07:41.325Z,73.22
2019-05-16T04:08:41.204Z,73.99
2019-05-16T04:09:41.188Z,74.27
2019-05-16T04:10:41.115Z,74.52
2019-05-16T04:11:42.527Z,74.04
2019-05-16T04:12:42.010Z,74.52
2019-05-16T04:13:41.154Z,73.95
2019-05-16T04:14:41.222Z,74.80
2019-05-16T04:15:40.833Z,75.60
2019-05-16T04:16:41.433Z,73.57
2019-05-16T04:17:41.128Z,73.57
2019-05-16T04:18:51.290Z,74.14
2019-05-16T04:19:41.583Z,74.46
2019-05-16T04:20:41.796Z,74.04
2019-05-16T04:21:42.219Z,75.67
2019-05-16T04:22:47.446Z,76.52
2019-05-16T04:23:41.976Z,75.95
2019-05-16T04:24:41.771Z,78.14
2019-05-16T04:25:41.062Z,79.19
2019-05-16T04:26:41.169Z,80.13
2019-05-16T04:27:41.550Z,79.66
2019-05-16T04:28:41.254Z,81.37
2019-05-16T04:29:40.798Z,82.42
2019-05-16T04:30:41.525Z,84.42
2019-05-16T04:31:41.273Z,83.65
2019-05-16T04:32:42.005Z,84.33
2019-05-16T04:33:41.559Z,83.18
2019-05-16T04:34:41.842Z,83.37
2019-05-16T04:35:41.172Z,84.61
2019-05-16T04:36:40.686Z,84.42
2019-05-16T04:37:42.328Z,83.47
2019-05-16T04:38:45.986Z,84.23
2019-05-16T04:39:41.497Z,84.42
2019-05-16T04:40:42.426Z,84.23
2019-05-16T04:41:40.945Z,84.42
2019-05-16T04:42:41.610Z,85.28
2019-05-16T04:43:41.669Z,84.42
2019-05-16T04:44:41.653Z,85.37
2019-05-16T04:45:41.479Z,85.18
2019-05-16T04:46:41.110Z,84.61
2019-05-16T04:47:41.370Z,85.56
2019-05-16T04:48:41.733Z,85.75
2019-05-16T04:49:41.183Z,83.28
2019-05-16T04:50:41.811Z,81.85
2019-05-16T04:51:41.454Z,81.09
2019-05-16T04:52:41.724Z,81.66
2019-05-16T04:53:42.120Z,81.85
2019-05-16T04:54:41.915Z,82.90
2019-05-16T04:55:41.828Z,80.80
2019-05-16T04:56:41.298Z,81.18
2019-05-16T04:57:42.008Z,80.42
2019-05-16T04:58:40.830Z,80.61
2019-05-16T04:59:41.415Z,80.04
2019-05-16T05:00:41.829Z,79.66
2019-05-16T05:01:41.283Z,79.57
2019-05-16T05:02:41.737Z,79.38
2019-05-16T05:03:40.921Z,79.75
2019-05-16T05:04:41.096Z,81.28
2019-05-16T05:05:41.261Z,81.18
2019-05-16T05:06:40.565Z,81.18
2019-05-16T05:07:40.589Z,80.90
2019-05-16T05:08:50.584Z,80.52
2019-05-16T05:09:40.878Z,81.09
2019-05-16T05:10:40.655Z,80.33
2019-05-16T05:11:41.066Z,80.61
2019-05-16T05:12:40.793Z,81.28
2019-05-16T05:13:41.070Z,80.33
2019-05-16T05:14:41.320Z,80.61
2019-05-16T05:15:40.133Z,79.85
2019-05-16T05:16:38.132Z,80.33
2019-05-16T05:17:40.920Z,80.13
2019-05-16T05:18:40.656Z,81.13
2019-05-16T05:19:38.058Z,80.99
2019-05-16T05:20:40.845Z,81.32
2019-05-16T05:21:40.679Z,80.46
2019-05-16T05:22:39.793Z,79.89
2019-05-16T05:23:40.499Z,79.60
2019-05-16T05:24:37.894Z,79.60
2019-05-16T05:25:40.364Z,79.99
2019-05-16T05:26:37.845Z,79.89
2019-05-16T05:27:37.950Z,79.41
2019-05-16T05:28:40.016Z,79.51
2019-05-16T05:29:39.856Z,78.94
2019-05-16T05:30:37.700Z,79.03
2019-05-16T05:31:43.670Z,79.22
2019-05-16T05:33:03.903Z,79.22
2019-05-16T05:33:41.342Z,79.41
2019-05-16T05:34:39.709Z,79.13
2019-05-16T05:35:37.551Z,79.32
2019-05-16T05:36:40.804Z,78.78
2019-05-16T05:37:40.718Z,79.07
2019-05-16T05:38:40.233Z,77.93
2019-05-16T05:39:39.585Z,78.41
2019-05-16T05:40:37.431Z,79.55
2019-05-16T05:41:39.945Z,78.98
2019-05-16T05:42:39.751Z,78.59
2019-05-16T05:43:39.628Z,78.12
2019-05-16T05:44:37.295Z,77.93
2019-05-16T05:45:40.179Z,77.45
2019-05-16T05:46:37.251Z,78.03
2019-05-16T05:47:39.973Z,77.64
2019-05-16T05:48:37.242Z,76.59
2019-05-16T05:49:45.985Z,76.59
2019-05-16T05:50:37.124Z,76.79
2019-05-16T05:52:05.943Z,76.59
2019-05-16T05:52:37.156Z,76.06
2019-05-16T05:53:37.107Z,76.50
2019-05-16T05:54:40.565Z,76.82
2019-05-16T05:55:37.049Z,76.16
2019-05-16T05:56:36.983Z,76.44
2019-05-16T05:57:36.984Z,75.20
2019-05-16T05:58:36.924Z,75.20
2019-05-16T05:59:36.893Z,74.06
2019-05-16T06:00:36.831Z,74.60
2019-05-16T06:01:40.415Z,75.16
2019-05-16T06:02:36.759Z,75.16
2019-05-16T06:03:39.721Z,76.03
2019-05-16T06:04:36.701Z,76.40
2019-05-16T06:05:36.720Z,76.21
2019-05-16T06:06:36.643Z,75.78
2019-05-16T06:07:36.723Z,76.06
2019-05-16T06:08:36.581Z,76.06
2019-05-16T06:09:49.782Z,75.87
2019-05-16T06:10:36.577Z,76.73
2019-05-16T06:11:36.499Z,76.64
2019-05-16T06:12:36.461Z,75.68
2019-05-16T06:13:36.439Z,76.25
2019-05-16T06:14:36.409Z,76.06
2019-05-16T06:15:36.419Z,76.82
2019-05-16T06:16:36.359Z,76.54
2019-05-16T06:17:36.327Z,75.96
2019-05-16T06:18:36.301Z,75.11
2019-05-16T06:19:36.270Z,75.30
2019-05-16T06:20:36.248Z,75.96
2019-05-16T06:21:36.218Z,76.44
2019-05-16T06:22:36.186Z,76.44
2019-05-16T06:23:36.156Z,75.87
2019-05-16T06:24:36.116Z,76.16
2019-05-16T06:25:36.283Z,76.35
2019-05-16T06:26:36.069Z,76.16
2019-05-16T06:27:36.052Z,76.64
2019-05-16T06:28:36.029Z,75.68
2019-05-16T06:29:35.976Z,77.01
2019-05-16T06:30:35.942Z,76.06
2019-05-16T06:31:35.908Z,75.84
2019-05-16T06:32:35.878Z,76.35
2019-05-16T06:33:35.883Z,76.44
2019-05-16T06:34:35.857Z,76.82
2019-05-16T06:35:35.790Z,76.12
2019-05-16T06:36:35.756Z,76.59
2019-05-16T06:37:35.744Z,76.06
2019-05-16T06:38:35.711Z,76.06
2019-05-16T06:39:41.901Z,76.21
2019-05-16T06:40:40.082Z,76.59
2019-05-16T06:41:35.619Z,76.31
2019-05-16T06:42:36.659Z,76.06
2019-05-16T06:43:35.557Z,76.44
2019-05-16T06:44:35.627Z,76.59
2019-05-16T06:45:35.495Z,77.26
2019-05-16T06:46:44.202Z,77.64
2019-05-16T06:47:35.445Z,77.45
2019-05-16T06:48:35.454Z,78.31
2019-05-16T06:49:35.476Z,79.07
2019-05-16T06:50:35.346Z,78.03
2019-05-16T06:51:35.373Z,78.64
2019-05-16T06:52:35.283Z,78.12
2019-05-16T06:53:37.352Z,78.06
2019-05-16T06:54:35.222Z,77.01
2019-05-16T06:55:35.299Z,77.69
2019-05-16T06:56:35.167Z,78.06
2019-05-16T06:57:36.235Z,78.25
2019-05-16T06:58:47.437Z,78.06
2019-05-16T06:59:35.078Z,78.35
2019-05-16T07:00:35.135Z,78.44
2019-05-16T07:01:35.023Z,77.01
2019-05-16T07:02:50.310Z,76.44
2019-05-16T07:03:34.960Z,77.11
2019-05-16T07:04:34.965Z,77.01
2019-05-16T07:05:34.897Z,77.20
2019-05-16T07:06:51.709Z,76.44
2019-05-16T07:07:35.903Z,76.82
2019-05-16T07:08:34.811Z,76.64
2019-05-16T07:09:34.902Z,77.11
2019-05-16T07:10:34.747Z,76.82
2019-05-16T07:11:34.803Z,76.20
2019-05-16T07:12:34.692Z,75.59
2019-05-16T07:13:34.691Z,74.57
2019-05-16T07:14:34.632Z,75.53
2019-05-16T07:15:35.623Z,76.20
2019-05-16T07:16:34.617Z,75.62
2019-05-16T07:17:34.621Z,75.72
2019-05-16T07:18:34.532Z,76.20
2019-05-16T07:19:35.548Z,75.96
2019-05-16T07:20:34.486Z,75.40
2019-05-16T07:21:34.436Z,76.06
2019-05-16T07:22:34.409Z,76.25
2019-05-16T07:23:34.461Z,76.64
2019-05-16T07:24:34.327Z,76.73
2019-05-16T07:25:34.368Z,76.25
2019-05-16T07:26:34.282Z,75.87
2019-05-16T07:27:34.282Z,76.25
2019-05-16T07:28:34.215Z,76.64
2019-05-16T07:29:34.259Z,77.30
2019-05-16T07:30:34.185Z,77.30
2019-05-16T07:31:36.215Z,77.69
2019-05-16T07:32:34.096Z,77.69
2019-05-16T07:33:34.115Z,78.54
2019-05-16T07:34:34.034Z,79.02
2019-05-16T07:35:34.089Z,78.06
2019-05-16T07:36:34.089Z,77.30
2019-05-16T07:37:34.025Z,78.54
2019-05-16T07:38:33.946Z,78.54
2019-05-16T07:39:33.923Z,78.06
2019-05-16T07:40:33.969Z,77.82
2019-05-16T07:41:33.963Z,77.15
2019-05-16T07:42:33.806Z,77.25
2019-05-16T07:43:33.847Z,77.40
2019-05-16T07:44:33.755Z,76.57
2019-05-16T07:45:33.750Z,76.48
2019-05-16T07:46:33.689Z,77.06
2019-05-16T07:47:33.776Z,76.86
2019-05-16T07:48:33.643Z,77.06
2019-05-16T07:49:35.630Z,76.20
2019-05-16T07:50:33.565Z,76.20
2019-05-16T07:51:35.635Z,76.29
2019-05-16T07:52:36.463Z,76.86
2019-05-16T07:53:33.504Z,77.06
2019-05-16T07:54:34.493Z,76.96
2019-05-16T07:55:33.514Z,77.82
2019-05-16T07:56:33.395Z,77.57
2019-05-16T07:57:41.923Z,76.10
2019-05-16T07:58:33.381Z,76.10
2019-05-16T07:59:41.935Z,76.86
2019-05-16T08:00:47.696Z,76.01
2019-05-16T08:01:50.686Z,76.01
2019-05-16T08:02:33.207Z,75.62
2019-05-16T08:03:43.635Z,75.53
2019-05-16T08:04:33.163Z,76.23
2019-05-16T08:05:33.415Z,76.20
2019-05-16T08:06:34.136Z,76.10
2019-05-16T08:07:33.538Z,76.42
2019-05-16T08:08:33.119Z,75.95
2019-05-16T08:09:33.046Z,76.42
2019-05-16T08:10:40.631Z,76.33
2019-05-16T08:11:33.066Z,75.76
2019-05-16T08:12:33.176Z,75.57
2019-05-16T08:13:40.031Z,75.95
2019-05-16T08:14:35.089Z,76.04
2019-05-16T08:15:50.175Z,75.28
2019-05-16T08:16:32.802Z,75.28
2019-05-16T08:17:44.105Z,74.80
2019-05-16T08:18:32.742Z,74.99
2019-05-16T08:19:41.449Z,74.61
2019-05-16T08:20:32.723Z,75.18
2019-05-16T08:21:32.664Z,74.74
2019-05-16T08:22:32.635Z,74.55
2019-05-16T08:23:32.606Z,74.46
2019-05-16T08:24:36.034Z,73.98
2019-05-16T08:25:32.547Z,73.32
2019-05-16T08:26:38.242Z,72.26
2019-05-16T08:27:32.480Z,72.20
2019-05-16T08:28:32.490Z,71.41
2019-05-16T08:29:32.461Z,71.78
2019-05-16T08:30:32.395Z,71.59
2019-05-16T08:31:32.366Z,72.07
2019-05-16T08:32:34.354Z,73.32
2019-05-16T08:33:32.373Z,73.54
2019-05-16T08:34:32.467Z,73.35
2019-05-16T08:35:32.246Z,72.11
2019-05-16T08:36:33.227Z,71.34
2019-05-16T08:37:38.413Z,71.34
2019-05-16T08:38:34.187Z,72.53
2019-05-16T08:39:32.136Z,71.86
2019-05-16T08:41:04.750Z,70.48
2019-05-16T08:41:32.069Z,70.67
2019-05-16T08:42:34.054Z,70.58
2019-05-16T08:43:32.023Z,71.53
2019-05-16T08:44:32.583Z,69.91
2019-05-16T08:45:31.956Z,70.20
2019-05-16T08:46:54.771Z,70.20
2019-05-16T08:47:32.356Z,70.77
2019-05-16T08:48:32.465Z,69.91
2019-05-16T08:49:31.861Z,70.20
2019-05-16T08:50:35.002Z,70.20
2019-05-16T08:51:33.185Z,70.87
2019-05-16T08:52:31.860Z,70.61
2019-05-16T08:53:32.120Z,69.76
2019-05-16T08:54:32.028Z,70.61
2019-05-16T08:55:31.659Z,70.42
2019-05-16T08:56:31.990Z,69.76
2019-05-16T08:58:33.350Z,70.52
2019-05-16T08:59:35.105Z,69.31
2019-05-16T09:01:34.970Z,68.93
2019-05-16T09:02:37.206Z,68.32
2019-05-16T09:04:33.816Z,69.27
2019-05-16T09:05:31.645Z,68.51
2019-05-16T09:06:32.208Z,69.27
2019-05-16T09:07:31.987Z,68.99
2019-05-16T09:08:32.291Z,69.95
2019-05-16T09:10:26.158Z,69.27
2019-05-16T09:10:30.768Z,69.95
2019-05-16T09:10:39.169Z,69.79
2019-05-16T09:10:39.201Z,68.90
2019-05-16T09:10:49.833Z,69.21
2019-05-16T09:11:40.656Z,68.16
2019-05-16T09:12:31.155Z,67.78
2019-05-16T09:13:31.136Z,68.07
2019-05-16T09:14:35.250Z,68.64
2019-05-16T09:15:31.076Z,67.97
2019-05-16T09:16:31.092Z,68.70
2019-05-16T09:17:31.034Z,69.41
2019-05-16T09:18:40.595Z,68.32
2019-05-16T09:19:30.958Z,68.70
2019-05-16T09:20:30.956Z,68.32
2019-05-16T09:21:30.892Z,68.90
2019-05-16T09:22:30.887Z,70.17
2019-05-16T09:23:30.904Z,68.70
2019-05-16T09:24:31.831Z,69.66
2019-05-16T09:25:30.782Z,69.21
2019-05-16T09:26:32.762Z,68.16
2019-05-16T09:27:30.737Z,68.61
2019-05-16T09:28:38.949Z,69.76
2019-05-16T09:29:30.669Z,69.21
2019-05-16T09:31:30.602Z,69.09
2019-05-16T09:32:48.110Z,69.89
2019-05-16T09:33:30.578Z,70.75
2019-05-16T09:34:30.540Z,69.41
2019-05-16T09:35:30.483Z,69.66
2019-05-16T09:36:30.484Z,68.99
2019-05-16T09:37:38.129Z,69.18
2019-05-16T09:38:30.527Z,69.95
2019-05-16T09:39:30.485Z,70.17
2019-05-16T09:40:30.332Z,69.89
2019-05-16T09:41:46.819Z,70.52
2019-05-16T09:42:30.284Z,69.27
2019-05-16T09:43:30.294Z,70.23
2019-05-16T09:44:30.215Z,70.52
2019-05-16T09:45:31.317Z,70.14
2019-05-16T09:46:30.166Z,70.71
2019-05-16T09:47:31.244Z,70.33
2019-05-16T09:48:30.112Z,69.89
2019-05-16T09:49:31.165Z,69.60
2019-05-16T09:50:30.047Z,69.95
2019-05-16T09:51:30.049Z,70.23
2019-05-16T09:52:29.982Z,70.81
2019-05-16T09:53:30.051Z,71.67
2019-05-16T09:54:29.950Z,71.47
2019-05-16T09:55:29.975Z,71.61
2019-05-16T09:56:29.861Z,71.22
2019-05-16T09:57:29.875Z,71.32
2019-05-16T09:58:29.809Z,70.94
2019-05-16T09:59:29.903Z,69.98
2019-05-16T10:00:29.743Z,70.17
2019-05-16T10:01:31.754Z,70.56
2019-05-16T10:02:29.692Z,71.13
2019-05-16T10:03:37.514Z,72.47
2019-05-16T10:04:29.629Z,71.89
2019-05-16T10:05:30.651Z,73.33
2019-05-16T10:06:29.650Z,73.04
2019-05-16T10:07:29.662Z,72.37
2019-05-16T10:08:29.512Z,72.08
2019-05-16T10:09:44.770Z,72.94
2019-05-16T10:10:29.462Z,73.14
2019-05-16T10:11:44.017Z,71.99
2019-05-16T10:12:29.405Z,71.13
2019-05-16T10:14:07.275Z,71.47
2019-05-16T10:14:29.352Z,72.24
2019-05-16T10:16:29.310Z,72.81
2019-05-16T10:17:29.248Z,72.81
2019-05-16T10:18:31.281Z,73.00
2019-05-16T10:19:29.214Z,73.99
2019-05-16T10:20:29.218Z,73.80
2019-05-16T10:21:29.145Z,71.70
2019-05-16T10:22:31.193Z,71.45
2019-05-16T10:23:29.076Z,70.94
2019-05-16T10:24:30.063Z,71.51
2019-05-16T10:25:29.025Z,72.37
2019-05-16T10:27:28.957Z,71.42
2019-05-16T10:28:29.037Z,72.18
2019-05-16T10:29:28.905Z,71.93
2019-05-16T10:30:28.982Z,72.50
2019-05-16T10:31:41.354Z,71.99
2019-05-16T10:32:47.829Z,72.02
2019-05-16T10:33:28.792Z,71.83
2019-05-16T10:34:28.747Z,72.41
2019-05-16T10:35:30.301Z,71.55
2019-05-16T10:36:28.696Z,71.64
2019-05-16T10:37:29.739Z,72.41
2019-05-16T10:38:28.866Z,72.41
2019-05-16T10:40:28.583Z,70.97
2019-05-16T10:41:29.573Z,71.93
2019-05-16T10:42:29.310Z,71.45
2019-05-16T10:43:28.551Z,72.50
2019-05-16T10:44:28.700Z,71.93
2019-05-16T10:45:36.897Z,72.50
2019-05-16T10:46:28.427Z,71.26
2019-05-16T10:47:31.137Z,71.45
2019-05-16T10:48:49.380Z,71.83
2019-05-16T10:49:36.974Z,70.87
2019-05-16T10:50:43.075Z,71.93
2019-05-16T10:51:28.306Z,70.91
2019-05-16T10:52:28.354Z,69.92
2019-05-16T10:54:00.050Z,70.59
2019-05-16T10:55:08.144Z,70.17
2019-05-16T10:55:28.180Z,70.84
2019-05-16T10:56:28.128Z,71.76
2019-05-16T10:57:49.214Z,73.29
2019-05-16T10:58:36.449Z,73.19
2019-05-16T11:00:57.672Z,74.15
2019-05-16T11:01:59.678Z,74.15
2019-05-16T11:02:27.987Z,74.05
2019-05-16T11:03:28.135Z,74.44
2019-05-16T11:05:33.364Z,74.73
2019-05-16T11:06:29.406Z,74.63
2019-05-16T11:33:07.370Z,75.39
2019-05-16T11:34:04.911Z,74.82
2019-05-16T11:35:07.149Z,74.91
2019-05-16T11:36:07.597Z,74.82
2019-05-16T11:37:06.815Z,74.28
2019-05-16T11:38:07.082Z,74.76
2019-05-16T11:39:04.784Z,73.61
2019-05-16T11:40:06.704Z,73.52
2019-05-16T11:41:07.229Z,73.39
2019-05-16T11:42:04.785Z,73.48
2019-05-16T11:43:12.351Z,74.15
2019-05-16T11:44:06.696Z,74.34
2019-05-16T11:45:08.655Z,74.15
2019-05-16T11:46:04.580Z,74.15
2019-05-16T11:47:27.207Z,73.86
2019-05-16T11:48:04.569Z,74.40
2019-05-16T11:49:04.605Z,75.26
2019-05-16T11:51:06.839Z,75.10
2019-05-16T11:52:21.143Z,76.25
2019-05-16T11:53:07.103Z,76.16
2019-05-16T11:55:07.172Z,74.91
2019-05-16T11:56:04.298Z,75.39
2019-05-16T11:57:19.150Z,74.82
2019-05-16T11:58:06.611Z,74.91
2019-05-16T11:59:28.374Z,74.24
2019-05-16T12:00:04.187Z,74.15
2019-05-16T12:01:28.273Z,73.96
2019-05-16T12:02:04.123Z,73.77
2019-05-16T12:03:04.111Z,74.34
2019-05-16T12:04:04.168Z,74.24
2019-05-16T12:05:04.040Z,74.44
2019-05-16T12:06:05.546Z,73.58
2019-05-16T12:07:03.980Z,73.77
2019-05-16T12:08:07.261Z,74.15
2019-05-16T12:09:03.917Z,73.67
2019-05-16T12:10:03.919Z,73.29
2019-05-16T12:11:03.860Z,73.14
2019-05-16T12:12:04.561Z,73.39
2019-05-16T12:13:03.825Z,73.00
2019-05-16T12:14:03.829Z,73.00
2019-05-16T12:15:03.753Z,72.72
2019-05-16T12:16:03.737Z,73.00
2019-05-16T12:17:03.686Z,73.58
2019-05-16T12:18:05.138Z,73.48
2019-05-16T12:19:03.699Z,73.29
2019-05-16T12:20:03.600Z,73.19
2019-05-16T12:21:03.575Z,73.00
2019-05-16T12:22:03.546Z,72.72
2019-05-16T12:23:03.538Z,72.24
2019-05-16T12:24:03.569Z,72.81
2019-05-16T12:25:03.471Z,73.19
2019-05-16T12:26:03.424Z,72.91
2019-05-16T12:27:03.394Z,73.43
2019-05-16T12:28:03.358Z,73.14
2019-05-16T12:29:03.332Z,71.42
2019-05-16T12:30:03.329Z,71.80
2019-05-16T12:31:03.270Z,72.47
2019-05-16T12:32:03.433Z,71.51
2019-05-16T12:33:03.218Z,71.61
2019-05-16T12:34:03.187Z,72.28
2019-05-16T12:35:03.253Z,71.99
2019-05-16T12:36:03.127Z,71.80
2019-05-16T12:37:03.113Z,71.99
2019-05-16T12:38:03.087Z,71.70
2019-05-16T12:39:03.040Z,71.61
2019-05-16T12:40:03.066Z,71.70
2019-05-16T12:41:02.991Z,71.70
2019-05-16T12:42:02.969Z,71.89
2019-05-16T12:43:02.919Z,71.42
2019-05-16T12:44:02.891Z,71.26
2019-05-16T12:45:02.889Z,70.97
2019-05-16T12:46:02.853Z,71.64
2019-05-16T12:47:02.809Z,70.36
2019-05-16T12:48:02.781Z,70.40
2019-05-16T12:49:02.837Z,70.87
2019-05-16T12:50:02.726Z,70.11
2019-05-16T12:51:02.835Z,69.92
2019-05-16T12:52:02.669Z,69.35
2019-05-16T12:53:02.623Z,69.25
2019-05-16T12:54:02.630Z,69.29
2019-05-16T12:55:02.679Z,69.29
2019-05-16T12:56:02.603Z,70.15
2019-05-16T12:57:04.536Z,70.50
2019-05-16T12:58:12.679Z,70.78
2019-05-16T12:59:02.446Z,71.45
2019-05-16T13:00:03.426Z,72.22
2019-05-16T13:01:02.395Z,74.19
2019-05-16T13:02:09.069Z,75.05
2019-05-16T13:03:02.356Z,75.62
2019-05-16T13:04:18.889Z,76.39
2019-05-16T13:05:02.354Z,76.25
2019-05-16T13:06:03.306Z,76.92
2019-05-16T13:07:02.222Z,77.40
2019-05-16T13:08:02.186Z,77.97
2019-05-16T13:09:02.241Z,77.50
2019-05-16T13:11:02.128Z,77.50
2019-05-16T13:12:09.066Z,77.78
2019-05-16T13:13:02.037Z,77.11
2019-05-16T13:14:11.304Z,78.64
2019-05-16T13:15:01.989Z,78.93
2019-05-16T13:16:01.952Z,78.45
2019-05-16T13:17:01.975Z,76.98
2019-05-16T13:18:03.890Z,78.03
2019-05-16T13:19:01.857Z,77.45
2019-05-16T13:20:03.103Z,77.55
2019-05-16T13:21:01.824Z,78.41
2019-05-16T13:22:02.882Z,78.51
2019-05-16T13:23:01.776Z,78.60
2019-05-16T13:24:02.714Z,78.22
2019-05-16T13:25:01.696Z,78.31
2019-05-16T13:26:01.668Z,78.51
2019-05-16T13:27:01.624Z,78.13